sensor_id;sensor_type;location;lat;lon;timestamp;temperature;humidity
17154;DHT22;8692;52.164;7.558;2024-02-21T00:02:21;8.70;99.90
17154;DHT22;8692;52.164;7.558;2024-02-21T00:04:50;8.70;99.90
17154;DHT22;8692;52.164;7.558;2024-02-21T00:07:18;8.70;99.90
17154;DHT22;8692;52.164;7.558;2024-02-21T00:09:47;8.70;99.90
17154;DHT22;8692;52.164;7.558;2024-02-21T00:12:15;8.70;99.90
17154;DHT22;8692;52.164;7.558;2024-02-21T00:14:43;8.80;99.90
17154;DHT22;8692;52.164;7.558;2024-02-21T00:17:11;8.80;99.90
17154;DHT22;8692;52.164;7.558;2024-02-21T00:19:39;8.80;99.90
17154;DHT22;8692;52.164;7.558;2024-02-21T00:22:09;8.80;99.90
17154;DHT22;8692;52.164;7.558;2024-02-21T00:24:37;8.80;99.90
17154;DHT22;8692;52.164;7.558;2024-02-21T00:27:05;8.80;99.90
17154;DHT22;8692;52.164;7.558;2024-02-21T00:29:33;8.80;99.90
17154;DHT22;8692;52.164;7.558;2024-02-21T00:32:02;8.80;99.90
17154;DHT22;8692;52.164;7.558;2024-02-21T00:34:30;8.70;99.90
17154;DHT22;8692;52.164;7.558;2024-02-21T00:36:58;8.80;99.90
17154;DHT22;8692;52.164;7.558;2024-02-21T00:39:28;8.80;99.90
17154;DHT22;8692;52.164;7.558;2024-02-21T00:41:56;8.80;99.90
17154;DHT22;8692;52.164;7.558;2024-02-21T00:44:24;8.70;99.90
17154;DHT22;8692;52.164;7.558;2024-02-21T00:46:52;8.80;99.90
17154;DHT22;8692;52.164;7.558;2024-02-21T00:49:20;8.70;99.90
17154;DHT22;8692;52.164;7.558;2024-02-21T00:51:48;8.80;99.90
17154;DHT22;8692;52.164;7.558;2024-02-21T00:54:16;8.80;99.90
17154;DHT22;8692;52.164;7.558;2024-02-21T00:56:45;8.80;99.90
17154;DHT22;8692;52.164;7.558;2024-02-21T00:59:13;8.80;99.90
17154;DHT22;8692;52.164;7.558;2024-02-21T01:01:41;8.80;99.90
17154;DHT22;8692;52.164;7.558;2024-02-21T01:04:09;8.80;99.90
17154;DHT22;8692;52.164;7.558;2024-02-21T01:06:38;8.80;99.90
17154;DHT22;8692;52.164;7.558;2024-02-21T01:09:09;8.80;99.90
17154;DHT22;8692;52.164;7.558;2024-02-21T01:11:37;8.80;99.90
17154;DHT22;8692;52.164;7.558;2024-02-21T01:14:06;8.80;99.90
17154;DHT22;8692;52.164;7.558;2024-02-21T01:16:34;8.80;99.90
17154;DHT22;8692;52.164;7.558;2024-02-21T01:19:02;8.80;99.90
17154;DHT22;8692;52.164;7.558;2024-02-21T01:21:31;8.80;99.90
17154;DHT22;8692;52.164;7.558;2024-02-21T01:23:58;8.80;99.90
17154;DHT22;8692;52.164;7.558;2024-02-21T01:26:26;8.80;99.90
17154;DHT22;8692;52.164;7.558;2024-02-21T01:28:54;8.80;99.90
17154;DHT22;8692;52.164;7.558;2024-02-21T01:31:24;8.80;99.90
17154;DHT22;8692;52.164;7.558;2024-02-21T01:33:52;8.80;99.90
17154;DHT22;8692;52.164;7.558;2024-02-21T01:36:20;8.80;99.90
17154;DHT22;8692;52.164;7.558;2024-02-21T01:38:48;8.80;99.90
17154;DHT22;8692;52.164;7.558;2024-02-21T01:41:16;8.80;99.90
17154;DHT22;8692;52.164;7.558;2024-02-21T01:43:44;8.80;99.90
17154;DHT22;8692;52.164;7.558;2024-02-21T01:46:12;8.80;99.90
17154;DHT22;8692;52.164;7.558;2024-02-21T01:48:42;8.80;99.90
17154;DHT22;8692;52.164;7.558;2024-02-21T01:51:12;8.80;99.90
17154;DHT22;8692;52.164;7.558;2024-02-21T01:53:43;8.80;99.90
17154;DHT22;8692;52.164;7.558;2024-02-21T01:56:12;8.80;99.90
17154;DHT22;8692;52.164;7.558;2024-02-21T01:58:42;8.80;99.90
17154;DHT22;8692;52.164;7.558;2024-02-21T02:01:11;8.80;99.90
17154;DHT22;8692;52.164;7.558;2024-02-21T02:03:42;8.80;99.90
17154;DHT22;8692;52.164;7.558;2024-02-21T02:06:12;8.80;99.90
17154;DHT22;8692;52.164;7.558;2024-02-21T02:08:40;8.80;99.90
17154;DHT22;8692;52.164;7.558;2024-02-21T02:11:09;8.80;99.90
17154;DHT22;8692;52.164;7.558;2024-02-21T02:13:37;8.80;99.90
17154;DHT22;8692;52.164;7.558;2024-02-21T02:16:06;8.80;99.90
17154;DHT22;8692;52.164;7.558;2024-02-21T02:18:34;8.80;99.90
17154;DHT22;8692;52.164;7.558;2024-02-21T02:21:08;8.80;99.90
17154;DHT22;8692;52.164;7.558;2024-02-21T02:23:40;8.80;99.90
17154;DHT22;8692;52.164;7.558;2024-02-21T02:26:09;8.80;99.90
17154;DHT22;8692;52.164;7.558;2024-02-21T02:28:37;8.80;99.90
17154;DHT22;8692;52.164;7.558;2024-02-21T02:31:05;8.80;99.90
17154;DHT22;8692;52.164;7.558;2024-02-21T02:33:33;8.80;99.90
17154;DHT22;8692;52.164;7.558;2024-02-21T02:36:02;8.80;99.90
17154;DHT22;8692;52.164;7.558;2024-02-21T02:38:30;8.80;99.90
17154;DHT22;8692;52.164;7.558;2024-02-21T02:40:59;8.80;99.90
17154;DHT22;8692;52.164;7.558;2024-02-21T02:43:27;8.80;99.90
17154;DHT22;8692;52.164;7.558;2024-02-21T02:45:55;8.80;99.90
17154;DHT22;8692;52.164;7.558;2024-02-21T02:48:23;8.80;99.90
17154;DHT22;8692;52.164;7.558;2024-02-21T02:50:52;8.80;99.90
17154;DHT22;8692;52.164;7.558;2024-02-21T02:53:20;8.80;99.90
17154;DHT22;8692;52.164;7.558;2024-02-21T02:55:47;8.80;99.90
17154;DHT22;8692;52.164;7.558;2024-02-21T02:58:17;8.80;99.90
17154;DHT22;8692;52.164;7.558;2024-02-21T03:00:45;8.80;99.90
17154;DHT22;8692;52.164;7.558;2024-02-21T03:03:13;8.80;99.90
17154;DHT22;8692;52.164;7.558;2024-02-21T03:05:41;8.80;99.90
17154;DHT22;8692;52.164;7.558;2024-02-21T03:08:09;8.80;99.90
17154;DHT22;8692;52.164;7.558;2024-02-21T03:10:37;8.80;99.90
17154;DHT22;8692;52.164;7.558;2024-02-21T03:13:05;8.80;99.90
17154;DHT22;8692;52.164;7.558;2024-02-21T03:15:34;8.80;99.90
17154;DHT22;8692;52.164;7.558;2024-02-21T03:18:02;8.80;99.90
17154;DHT22;8692;52.164;7.558;2024-02-21T03:20:31;8.80;99.90
17154;DHT22;8692;52.164;7.558;2024-02-21T03:22:59;8.80;99.90
17154;DHT22;8692;52.164;7.558;2024-02-21T03:25:27;8.80;99.90
17154;DHT22;8692;52.164;7.558;2024-02-21T03:27:55;8.80;99.90
17154;DHT22;8692;52.164;7.558;2024-02-21T03:30:23;8.80;99.90
17154;DHT22;8692;52.164;7.558;2024-02-21T03:32:52;8.80;99.90
17154;DHT22;8692;52.164;7.558;2024-02-21T03:35:20;8.80;99.90
17154;DHT22;8692;52.164;7.558;2024-02-21T03:37:48;8.80;99.90
17154;DHT22;8692;52.164;7.558;2024-02-21T03:40:16;8.80;99.90
17154;DHT22;8692;52.164;7.558;2024-02-21T03:42:44;8.80;99.90
17154;DHT22;8692;52.164;7.558;2024-02-21T03:45:12;8.80;99.90
17154;DHT22;8692;52.164;7.558;2024-02-21T03:47:40;8.80;99.90
17154;DHT22;8692;52.164;7.558;2024-02-21T03:50:10;8.80;99.90
17154;DHT22;8692;52.164;7.558;2024-02-21T03:52:38;8.80;99.90
17154;DHT22;8692;52.164;7.558;2024-02-21T03:55:07;8.80;99.90
17154;DHT22;8692;52.164;7.558;2024-02-21T03:57:35;8.80;99.90
17154;DHT22;8692;52.164;7.558;2024-02-21T04:00:04;8.80;99.90
17154;DHT22;8692;52.164;7.558;2024-02-21T04:02:37;8.80;99.90
17154;DHT22;8692;52.164;7.558;2024-02-21T04:05:06;8.80;99.90
17154;DHT22;8692;52.164;7.558;2024-02-21T04:07:39;8.80;99.90
17154;DHT22;8692;52.164;7.558;2024-02-21T04:10:08;8.80;99.90
17154;DHT22;8692;52.164;7.558;2024-02-21T04:12:36;8.80;99.90
17154;DHT22;8692;52.164;7.558;2024-02-21T04:15:05;8.80;99.90
17154;DHT22;8692;52.164;7.558;2024-02-21T04:17:34;8.80;99.90
17154;DHT22;8692;52.164;7.558;2024-02-21T04:20:03;8.80;99.90
17154;DHT22;8692;52.164;7.558;2024-02-21T04:22:33;8.80;99.90
17154;DHT22;8692;52.164;7.558;2024-02-21T04:25:02;8.80;99.90
17154;DHT22;8692;52.164;7.558;2024-02-21T04:27:30;8.80;99.90
17154;DHT22;8692;52.164;7.558;2024-02-21T04:29:58;8.80;99.90
17154;DHT22;8692;52.164;7.558;2024-02-21T04:32:27;8.80;99.90
17154;DHT22;8692;52.164;7.558;2024-02-21T04:34:55;8.80;99.90
17154;DHT22;8692;52.164;7.558;2024-02-21T04:37:23;8.80;99.90
17154;DHT22;8692;52.164;7.558;2024-02-21T04:39:51;8.80;99.90
17154;DHT22;8692;52.164;7.558;2024-02-21T04:42:21;8.80;99.90
17154;DHT22;8692;52.164;7.558;2024-02-21T04:44:49;8.80;99.90
17154;DHT22;8692;52.164;7.558;2024-02-21T04:47:16;8.80;99.90
17154;DHT22;8692;52.164;7.558;2024-02-21T04:49:45;8.80;99.90
17154;DHT22;8692;52.164;7.558;2024-02-21T04:52:14;8.80;99.90
17154;DHT22;8692;52.164;7.558;2024-02-21T04:54:42;8.80;99.90
17154;DHT22;8692;52.164;7.558;2024-02-21T04:57:10;8.70;99.90
17154;DHT22;8692;52.164;7.558;2024-02-21T04:59:39;8.70;99.90
17154;DHT22;8692;52.164;7.558;2024-02-21T05:02:07;8.70;99.90
17154;DHT22;8692;52.164;7.558;2024-02-21T05:04:38;8.70;99.90
17154;DHT22;8692;52.164;7.558;2024-02-21T05:07:08;8.70;99.90
17154;DHT22;8692;52.164;7.558;2024-02-21T05:09:37;8.80;99.90
17154;DHT22;8692;52.164;7.558;2024-02-21T05:12:06;8.70;99.90
17154;DHT22;8692;52.164;7.558;2024-02-21T05:14:34;8.70;99.90
17154;DHT22;8692;52.164;7.558;2024-02-21T05:17:04;8.70;99.90
17154;DHT22;8692;52.164;7.558;2024-02-21T05:19:32;8.80;99.90
17154;DHT22;8692;52.164;7.558;2024-02-21T05:22:00;8.70;99.90
17154;DHT22;8692;52.164;7.558;2024-02-21T05:24:28;8.70;99.90
17154;DHT22;8692;52.164;7.558;2024-02-21T05:26:57;8.70;99.90
17154;DHT22;8692;52.164;7.558;2024-02-21T05:29:24;8.70;99.90
17154;DHT22;8692;52.164;7.558;2024-02-21T05:31:56;8.80;99.90
17154;DHT22;8692;52.164;7.558;2024-02-21T05:34:26;8.70;99.90
17154;DHT22;8692;52.164;7.558;2024-02-21T05:36:55;8.80;99.90
17154;DHT22;8692;52.164;7.558;2024-02-21T05:39:24;8.70;99.90
17154;DHT22;8692;52.164;7.558;2024-02-21T05:41:52;8.70;99.90
17154;DHT22;8692;52.164;7.558;2024-02-21T05:44:20;8.70;99.90
17154;DHT22;8692;52.164;7.558;2024-02-21T05:46:49;8.70;99.90
17154;DHT22;8692;52.164;7.558;2024-02-21T05:49:17;8.70;99.90
17154;DHT22;8692;52.164;7.558;2024-02-21T05:51:46;8.70;99.90
17154;DHT22;8692;52.164;7.558;2024-02-21T05:54:14;8.70;99.90
17154;DHT22;8692;52.164;7.558;2024-02-21T05:56:44;8.70;99.90
17154;DHT22;8692;52.164;7.558;2024-02-21T05:59:12;8.70;99.90
17154;DHT22;8692;52.164;7.558;2024-02-21T06:01:40;8.70;99.90
17154;DHT22;8692;52.164;7.558;2024-02-21T06:04:08;8.70;99.90
17154;DHT22;8692;52.164;7.558;2024-02-21T06:06:36;8.70;99.90
17154;DHT22;8692;52.164;7.558;2024-02-21T06:09:06;8.70;99.90
17154;DHT22;8692;52.164;7.558;2024-02-21T06:11:34;8.70;99.90
17154;DHT22;8692;52.164;7.558;2024-02-21T06:14:04;8.70;99.90
17154;DHT22;8692;52.164;7.558;2024-02-21T06:16:33;8.70;99.90
17154;DHT22;8692;52.164;7.558;2024-02-21T06:19:01;8.70;99.90
17154;DHT22;8692;52.164;7.558;2024-02-21T06:21:32;8.70;99.90
17154;DHT22;8692;52.164;7.558;2024-02-21T06:24:00;8.70;99.90
17154;DHT22;8692;52.164;7.558;2024-02-21T06:26:29;8.70;99.90
17154;DHT22;8692;52.164;7.558;2024-02-21T06:28:57;8.70;99.90
17154;DHT22;8692;52.164;7.558;2024-02-21T06:31:27;8.70;99.90
17154;DHT22;8692;52.164;7.558;2024-02-21T06:33:55;8.70;99.90
17154;DHT22;8692;52.164;7.558;2024-02-21T06:36:23;8.70;99.90
17154;DHT22;8692;52.164;7.558;2024-02-21T06:38:51;8.70;99.90
17154;DHT22;8692;52.164;7.558;2024-02-21T06:41:19;8.70;99.90
17154;DHT22;8692;52.164;7.558;2024-02-21T06:43:49;8.70;99.90
17154;DHT22;8692;52.164;7.558;2024-02-21T06:46:24;8.70;99.90
17154;DHT22;8692;52.164;7.558;2024-02-21T06:48:52;8.70;99.90
17154;DHT22;8692;52.164;7.558;2024-02-21T06:51:20;8.70;99.90
17154;DHT22;8692;52.164;7.558;2024-02-21T06:53:48;8.70;99.90
17154;DHT22;8692;52.164;7.558;2024-02-21T06:56:16;8.70;99.90
17154;DHT22;8692;52.164;7.558;2024-02-21T06:58:45;8.70;99.90
17154;DHT22;8692;52.164;7.558;2024-02-21T07:01:14;8.70;99.90
17154;DHT22;8692;52.164;7.558;2024-02-21T07:03:42;8.60;99.90
17154;DHT22;8692;52.164;7.558;2024-02-21T07:06:10;8.70;99.90
17154;DHT22;8692;52.164;7.558;2024-02-21T07:08:39;8.70;99.90
17154;DHT22;8692;52.164;7.558;2024-02-21T07:11:07;8.60;99.90
17154;DHT22;8692;52.164;7.558;2024-02-21T07:13:35;8.70;99.90
17154;DHT22;8692;52.164;7.558;2024-02-21T07:16:03;8.70;99.90
17154;DHT22;8692;52.164;7.558;2024-02-21T07:18:32;8.70;99.90
17154;DHT22;8692;52.164;7.558;2024-02-21T07:21:01;8.70;99.90
17154;DHT22;8692;52.164;7.558;2024-02-21T07:23:29;8.70;99.90
17154;DHT22;8692;52.164;7.558;2024-02-21T07:25:56;8.70;99.90
17154;DHT22;8692;52.164;7.558;2024-02-21T07:28:25;8.70;99.90
17154;DHT22;8692;52.164;7.558;2024-02-21T07:30:53;8.70;99.90
17154;DHT22;8692;52.164;7.558;2024-02-21T07:33:21;8.70;99.90
17154;DHT22;8692;52.164;7.558;2024-02-21T07:35:50;8.70;99.90
17154;DHT22;8692;52.164;7.558;2024-02-21T07:38:18;8.70;99.90
17154;DHT22;8692;52.164;7.558;2024-02-21T07:40:46;8.70;99.90
17154;DHT22;8692;52.164;7.558;2024-02-21T07:43:15;8.70;99.90
17154;DHT22;8692;52.164;7.558;2024-02-21T07:45:43;8.70;99.90
17154;DHT22;8692;52.164;7.558;2024-02-21T07:48:10;8.70;99.90
17154;DHT22;8692;52.164;7.558;2024-02-21T07:50:38;8.70;99.90
17154;DHT22;8692;52.164;7.558;2024-02-21T07:53:08;8.80;99.90
17154;DHT22;8692;52.164;7.558;2024-02-21T07:55:36;8.80;99.90
17154;DHT22;8692;52.164;7.558;2024-02-21T07:58:04;8.80;99.90
17154;DHT22;8692;52.164;7.558;2024-02-21T08:00:32;8.80;99.90
17154;DHT22;8692;52.164;7.558;2024-02-21T08:03:00;8.80;99.90
17154;DHT22;8692;52.164;7.558;2024-02-21T08:05:28;8.80;99.90
17154;DHT22;8692;52.164;7.558;2024-02-21T08:07:57;8.80;99.90
17154;DHT22;8692;52.164;7.558;2024-02-21T08:10:26;8.90;99.90
17154;DHT22;8692;52.164;7.558;2024-02-21T08:12:54;8.90;99.90
17154;DHT22;8692;52.164;7.558;2024-02-21T08:15:22;8.90;99.90
17154;DHT22;8692;52.164;7.558;2024-02-21T08:17:55;8.90;99.90
17154;DHT22;8692;52.164;7.558;2024-02-21T08:20:27;9.00;99.90
17154;DHT22;8692;52.164;7.558;2024-02-21T08:22:55;9.00;99.90
17154;DHT22;8692;52.164;7.558;2024-02-21T08:25:23;9.00;99.90
17154;DHT22;8692;52.164;7.558;2024-02-21T08:27:55;9.00;99.90
17154;DHT22;8692;52.164;7.558;2024-02-21T08:30:24;9.00;99.90
17154;DHT22;8692;52.164;7.558;2024-02-21T08:32:52;9.10;99.90
17154;DHT22;8692;52.164;7.558;2024-02-21T08:35:21;9.10;99.90
17154;DHT22;8692;52.164;7.558;2024-02-21T08:37:50;9.10;99.90
17154;DHT22;8692;52.164;7.558;2024-02-21T08:40:18;9.10;99.90
17154;DHT22;8692;52.164;7.558;2024-02-21T08:42:48;9.10;99.90
17154;DHT22;8692;52.164;7.558;2024-02-21T08:45:18;9.10;99.90
17154;DHT22;8692;52.164;7.558;2024-02-21T08:47:46;9.20;99.90
17154;DHT22;8692;52.164;7.558;2024-02-21T08:50:14;9.20;99.90
17154;DHT22;8692;52.164;7.558;2024-02-21T08:52:54;9.20;99.90
17154;DHT22;8692;52.164;7.558;2024-02-21T08:55:22;9.20;99.90
17154;DHT22;8692;52.164;7.558;2024-02-21T08:57:50;9.30;99.90
17154;DHT22;8692;52.164;7.558;2024-02-21T09:00:20;9.20;99.90
17154;DHT22;8692;52.164;7.558;2024-02-21T09:02:53;9.30;99.90
17154;DHT22;8692;52.164;7.558;2024-02-21T09:05:22;9.30;99.90
17154;DHT22;8692;52.164;7.558;2024-02-21T09:07:52;9.30;99.90
17154;DHT22;8692;52.164;7.558;2024-02-21T09:10:20;9.40;99.90
17154;DHT22;8692;52.164;7.558;2024-02-21T09:12:48;9.30;99.90
17154;DHT22;8692;52.164;7.558;2024-02-21T09:15:17;9.40;99.90
17154;DHT22;8692;52.164;7.558;2024-02-21T09:17:46;9.40;99.90
17154;DHT22;8692;52.164;7.558;2024-02-21T09:20:14;9.40;99.90
17154;DHT22;8692;52.164;7.558;2024-02-21T09:22:43;9.50;99.90
17154;DHT22;8692;52.164;7.558;2024-02-21T09:25:11;9.50;99.90
17154;DHT22;8692;52.164;7.558;2024-02-21T09:27:41;9.50;99.90
17154;DHT22;8692;52.164;7.558;2024-02-21T09:30:09;9.50;99.90
17154;DHT22;8692;52.164;7.558;2024-02-21T09:32:37;9.60;99.90
17154;DHT22;8692;52.164;7.558;2024-02-21T09:35:08;9.60;99.90
17154;DHT22;8692;52.164;7.558;2024-02-21T09:37:36;9.60;99.90
17154;DHT22;8692;52.164;7.558;2024-02-21T09:40:05;9.60;99.90
17154;DHT22;8692;52.164;7.558;2024-02-21T09:42:37;9.70;99.90
17154;DHT22;8692;52.164;7.558;2024-02-21T09:45:08;9.70;99.90
17154;DHT22;8692;52.164;7.558;2024-02-21T09:47:43;9.70;99.90
17154;DHT22;8692;52.164;7.558;2024-02-21T09:50:19;9.70;99.90
17154;DHT22;8692;52.164;7.558;2024-02-21T09:52:49;9.70;99.90
17154;DHT22;8692;52.164;7.558;2024-02-21T09:55:19;9.70;99.90
17154;DHT22;8692;52.164;7.558;2024-02-21T09:57:48;9.70;99.90
17154;DHT22;8692;52.164;7.558;2024-02-21T10:00:18;9.70;99.90
17154;DHT22;8692;52.164;7.558;2024-02-21T10:02:49;9.70;99.90
17154;DHT22;8692;52.164;7.558;2024-02-21T10:05:19;9.70;99.90
17154;DHT22;8692;52.164;7.558;2024-02-21T10:07:49;9.70;99.90
17154;DHT22;8692;52.164;7.558;2024-02-21T10:10:17;9.70;99.90
17154;DHT22;8692;52.164;7.558;2024-02-21T10:12:49;9.70;99.90
17154;DHT22;8692;52.164;7.558;2024-02-21T10:15:20;9.70;99.90
17154;DHT22;8692;52.164;7.558;2024-02-21T10:17:49;9.80;99.90
17154;DHT22;8692;52.164;7.558;2024-02-21T10:20:19;9.80;99.90
17154;DHT22;8692;52.164;7.558;2024-02-21T10:22:47;9.80;99.90
17154;DHT22;8692;52.164;7.558;2024-02-21T10:25:15;9.80;99.90
17154;DHT22;8692;52.164;7.558;2024-02-21T10:27:44;9.80;99.90
17154;DHT22;8692;52.164;7.558;2024-02-21T10:30:13;9.80;99.90
17154;DHT22;8692;52.164;7.558;2024-02-21T10:32:49;9.80;99.90
17154;DHT22;8692;52.164;7.558;2024-02-21T10:35:27;9.90;99.90
17154;DHT22;8692;52.164;7.558;2024-02-21T10:37:57;9.90;99.90
17154;DHT22;8692;52.164;7.558;2024-02-21T10:40:26;9.90;99.90
17154;DHT22;8692;52.164;7.558;2024-02-21T10:42:56;9.90;99.90
17154;DHT22;8692;52.164;7.558;2024-02-21T10:45:30;9.90;99.90
17154;DHT22;8692;52.164;7.558;2024-02-21T10:48:06;10.00;99.90
17154;DHT22;8692;52.164;7.558;2024-02-21T10:50:47;10.00;99.90
17154;DHT22;8692;52.164;7.558;2024-02-21T10:53:24;10.00;99.90
17154;DHT22;8692;52.164;7.558;2024-02-21T10:56:02;10.10;99.90
17154;DHT22;8692;52.164;7.558;2024-02-21T10:58:37;10.00;99.90
17154;DHT22;8692;52.164;7.558;2024-02-21T11:01:08;10.00;99.90
17154;DHT22;8692;52.164;7.558;2024-02-21T11:03:37;10.10;99.90
17154;DHT22;8692;52.164;7.558;2024-02-21T11:06:07;10.10;99.90
17154;DHT22;8692;52.164;7.558;2024-02-21T11:08:37;10.10;99.90
17154;DHT22;8692;52.164;7.558;2024-02-21T11:11:05;10.00;99.90
17154;DHT22;8692;52.164;7.558;2024-02-21T11:13:35;10.00;99.90
17154;DHT22;8692;52.164;7.558;2024-02-21T11:16:08;10.00;99.90
17154;DHT22;8692;52.164;7.558;2024-02-21T11:18:37;10.00;99.90
17154;DHT22;8692;52.164;7.558;2024-02-21T11:21:07;10.00;99.90
17154;DHT22;8692;52.164;7.558;2024-02-21T11:23:35;10.00;99.90
17154;DHT22;8692;52.164;7.558;2024-02-21T11:26:05;10.00;99.90
17154;DHT22;8692;52.164;7.558;2024-02-21T11:28:33;10.00;99.90
17154;DHT22;8692;52.164;7.558;2024-02-21T11:31:10;10.00;99.90
17154;DHT22;8692;52.164;7.558;2024-02-21T11:33:40;10.00;99.90
17154;DHT22;8692;52.164;7.558;2024-02-21T11:36:10;10.00;99.90
17154;DHT22;8692;52.164;7.558;2024-02-21T11:38:38;10.00;99.90
17154;DHT22;8692;52.164;7.558;2024-02-21T11:41:08;9.90;99.90
17154;DHT22;8692;52.164;7.558;2024-02-21T11:43:39;10.00;99.90
17154;DHT22;8692;52.164;7.558;2024-02-21T11:46:08;9.90;99.90
17154;DHT22;8692;52.164;7.558;2024-02-21T11:48:36;9.90;99.90
17154;DHT22;8692;52.164;7.558;2024-02-21T11:51:05;9.90;99.90
17154;DHT22;8692;52.164;7.558;2024-02-21T11:53:34;9.90;99.90
17154;DHT22;8692;52.164;7.558;2024-02-21T11:56:14;9.90;99.90
17154;DHT22;8692;52.164;7.558;2024-02-21T11:58:42;9.90;99.90
17154;DHT22;8692;52.164;7.558;2024-02-21T12:01:10;9.90;99.90
17154;DHT22;8692;52.164;7.558;2024-02-21T12:03:39;9.90;99.90
17154;DHT22;8692;52.164;7.558;2024-02-21T12:06:08;9.90;99.90
17154;DHT22;8692;52.164;7.558;2024-02-21T12:08:43;9.90;99.90
17154;DHT22;8692;52.164;7.558;2024-02-21T12:11:19;9.90;99.90
17154;DHT22;8692;52.164;7.558;2024-02-21T12:13:47;9.90;99.90
17154;DHT22;8692;52.164;7.558;2024-02-21T12:16:16;9.80;99.90
17154;DHT22;8692;52.164;7.558;2024-02-21T12:18:45;9.80;99.90
17154;DHT22;8692;52.164;7.558;2024-02-21T12:21:13;9.80;99.90
17154;DHT22;8692;52.164;7.558;2024-02-21T12:23:42;9.80;99.90
17154;DHT22;8692;52.164;7.558;2024-02-21T12:26:10;9.80;99.90
17154;DHT22;8692;52.164;7.558;2024-02-21T12:28:38;9.80;99.90
17154;DHT22;8692;52.164;7.558;2024-02-21T12:31:06;9.80;99.90
17154;DHT22;8692;52.164;7.558;2024-02-21T12:33:34;9.80;99.90
17154;DHT22;8692;52.164;7.558;2024-02-21T12:36:03;9.80;99.90
17154;DHT22;8692;52.164;7.558;2024-02-21T12:38:31;9.80;99.90
17154;DHT22;8692;52.164;7.558;2024-02-21T12:41:01;9.80;99.90
17154;DHT22;8692;52.164;7.558;2024-02-21T12:43:29;9.80;99.90
17154;DHT22;8692;52.164;7.558;2024-02-21T12:45:57;9.80;99.90
17154;DHT22;8692;52.164;7.558;2024-02-21T12:48:25;9.90;99.90
17154;DHT22;8692;52.164;7.558;2024-02-21T12:50:53;9.90;99.90
17154;DHT22;8692;52.164;7.558;2024-02-21T12:53:21;9.90;99.90
17154;DHT22;8692;52.164;7.558;2024-02-21T12:55:59;9.90;99.90
17154;DHT22;8692;52.164;7.558;2024-02-21T12:58:28;9.90;99.90
17154;DHT22;8692;52.164;7.558;2024-02-21T13:00:58;9.90;99.90
17154;DHT22;8692;52.164;7.558;2024-02-21T13:03:26;9.90;99.90
17154;DHT22;8692;52.164;7.558;2024-02-21T13:05:59;9.90;99.90
17154;DHT22;8692;52.164;7.558;2024-02-21T13:08:27;10.00;99.90
17154;DHT22;8692;52.164;7.558;2024-02-21T13:10:55;10.00;99.90
17154;DHT22;8692;52.164;7.558;2024-02-21T13:13:23;10.00;99.90
17154;DHT22;8692;52.164;7.558;2024-02-21T13:15:52;10.00;99.90
17154;DHT22;8692;52.164;7.558;2024-02-21T13:18:21;10.00;99.90
17154;DHT22;8692;52.164;7.558;2024-02-21T13:20:49;10.00;99.90
17154;DHT22;8692;52.164;7.558;2024-02-21T13:23:17;10.00;99.90
17154;DHT22;8692;52.164;7.558;2024-02-21T13:25:45;10.00;99.90
17154;DHT22;8692;52.164;7.558;2024-02-21T13:28:13;10.00;99.90
17154;DHT22;8692;52.164;7.558;2024-02-21T13:30:43;10.00;99.90
17154;DHT22;8692;52.164;7.558;2024-02-21T13:33:12;10.00;99.90
17154;DHT22;8692;52.164;7.558;2024-02-21T13:35:41;10.00;99.90
17154;DHT22;8692;52.164;7.558;2024-02-21T13:38:09;10.00;99.90
17154;DHT22;8692;52.164;7.558;2024-02-21T13:40:37;10.10;99.90
17154;DHT22;8692;52.164;7.558;2024-02-21T13:43:05;10.10;99.90
17154;DHT22;8692;52.164;7.558;2024-02-21T13:45:37;10.10;99.90
17154;DHT22;8692;52.164;7.558;2024-02-21T13:48:06;10.00;99.90
17154;DHT22;8692;52.164;7.558;2024-02-21T13:50:39;10.10;99.90
17154;DHT22;8692;52.164;7.558;2024-02-21T13:53:10;10.10;99.90
17154;DHT22;8692;52.164;7.558;2024-02-21T13:55:38;10.10;99.90
17154;DHT22;8692;52.164;7.558;2024-02-21T13:58:07;10.20;99.90
17154;DHT22;8692;52.164;7.558;2024-02-21T14:00:35;10.20;99.90
17154;DHT22;8692;52.164;7.558;2024-02-21T14:03:04;10.20;99.90
17154;DHT22;8692;52.164;7.558;2024-02-21T14:05:32;10.20;99.90
17154;DHT22;8692;52.164;7.558;2024-02-21T14:08:02;10.30;99.90
17154;DHT22;8692;52.164;7.558;2024-02-21T14:10:30;10.30;99.90
17154;DHT22;8692;52.164;7.558;2024-02-21T14:12:58;10.30;99.90
17154;DHT22;8692;52.164;7.558;2024-02-21T14:15:27;10.20;99.90
17154;DHT22;8692;52.164;7.558;2024-02-21T14:17:55;10.20;99.90
17154;DHT22;8692;52.164;7.558;2024-02-21T14:20:23;10.20;99.90
17154;DHT22;8692;52.164;7.558;2024-02-21T14:22:51;10.30;99.90
17154;DHT22;8692;52.164;7.558;2024-02-21T14:25:21;10.30;99.90
17154;DHT22;8692;52.164;7.558;2024-02-21T14:27:49;10.30;99.90
17154;DHT22;8692;52.164;7.558;2024-02-21T14:30:17;10.30;99.90
17154;DHT22;8692;52.164;7.558;2024-02-21T14:32:45;10.30;99.90
17154;DHT22;8692;52.164;7.558;2024-02-21T14:35:13;10.20;99.90
17154;DHT22;8692;52.164;7.558;2024-02-21T14:37:42;10.30;99.90
17154;DHT22;8692;52.164;7.558;2024-02-21T14:40:11;10.20;99.90
17154;DHT22;8692;52.164;7.558;2024-02-21T14:42:41;10.20;99.90
17154;DHT22;8692;52.164;7.558;2024-02-21T14:45:09;10.20;99.90
17154;DHT22;8692;52.164;7.558;2024-02-21T14:47:37;10.20;99.90
17154;DHT22;8692;52.164;7.558;2024-02-21T14:50:06;10.20;99.90
17154;DHT22;8692;52.164;7.558;2024-02-21T14:52:35;10.20;99.90
17154;DHT22;8692;52.164;7.558;2024-02-21T14:55:05;10.20;99.90
17154;DHT22;8692;52.164;7.558;2024-02-21T14:57:33;10.20;99.90
17154;DHT22;8692;52.164;7.558;2024-02-21T15:00:06;10.30;99.90
17154;DHT22;8692;52.164;7.558;2024-02-21T15:02:35;10.30;99.90
17154;DHT22;8692;52.164;7.558;2024-02-21T15:05:04;10.20;99.90
17154;DHT22;8692;52.164;7.558;2024-02-21T15:07:32;10.30;99.90
17154;DHT22;8692;52.164;7.558;2024-02-21T15:10:01;10.20;99.90
17154;DHT22;8692;52.164;7.558;2024-02-21T15:12:29;10.20;99.90
17154;DHT22;8692;52.164;7.558;2024-02-21T15:14:58;10.20;99.90
17154;DHT22;8692;52.164;7.558;2024-02-21T15:17:28;10.20;99.90
17154;DHT22;8692;52.164;7.558;2024-02-21T15:19:56;10.20;99.90
17154;DHT22;8692;52.164;7.558;2024-02-21T15:22:26;10.20;99.90
17154;DHT22;8692;52.164;7.558;2024-02-21T15:24:54;10.20;99.90
17154;DHT22;8692;52.164;7.558;2024-02-21T15:27:22;10.20;99.90
17154;DHT22;8692;52.164;7.558;2024-02-21T15:29:51;10.20;99.90
17154;DHT22;8692;52.164;7.558;2024-02-21T15:32:19;10.20;99.90
17154;DHT22;8692;52.164;7.558;2024-02-21T15:34:48;10.20;99.90
17154;DHT22;8692;52.164;7.558;2024-02-21T15:37:16;10.20;99.90
17154;DHT22;8692;52.164;7.558;2024-02-21T15:39:44;10.20;99.90
17154;DHT22;8692;52.164;7.558;2024-02-21T15:42:12;10.20;99.90
17154;DHT22;8692;52.164;7.558;2024-02-21T15:44:40;10.20;99.90
17154;DHT22;8692;52.164;7.558;2024-02-21T15:47:08;10.20;99.90
17154;DHT22;8692;52.164;7.558;2024-02-21T15:49:37;10.20;99.90
17154;DHT22;8692;52.164;7.558;2024-02-21T15:52:07;10.20;99.90
17154;DHT22;8692;52.164;7.558;2024-02-21T15:54:34;10.20;99.90
17154;DHT22;8692;52.164;7.558;2024-02-21T15:57:03;10.20;99.90
17154;DHT22;8692;52.164;7.558;2024-02-21T15:59:33;10.20;99.90
17154;DHT22;8692;52.164;7.558;2024-02-21T16:02:01;10.20;99.90
17154;DHT22;8692;52.164;7.558;2024-02-21T16:04:29;10.20;99.90
17154;DHT22;8692;52.164;7.558;2024-02-21T16:06:59;10.20;99.90
17154;DHT22;8692;52.164;7.558;2024-02-21T16:09:29;10.20;99.90